createdAt,value
2019-02-25T00:01:05.677Z,16.93
2019-02-25T00:03:56.486Z,16.20
2019-02-25T00:06:29.698Z,15.32
2019-02-25T00:09:01.704Z,14.33
2019-02-25T00:11:30.458Z,21.33
2019-02-25T00:14:01.353Z,14.53
2019-02-25T00:16:32.255Z,17.23
2019-02-25T00:19:07.814Z,16.07
2019-02-25T00:21:39.609Z,20.00
2019-02-25T00:24:11.390Z,16.67
2019-02-25T00:26:40.627Z,21.02
2019-02-25T00:29:12.887Z,15.43
2019-02-25T00:31:47.842Z,13.48
2019-02-25T00:34:20.041Z,15.40
2019-02-25T00:36:52.275Z,16.30
2019-02-25T00:39:28.953Z,14.65
2019-02-25T00:41:58.640Z,11.08
2019-02-25T00:44:30.660Z,12.45
2019-02-25T00:47:04.621Z,14.50
2019-02-25T00:49:38.036Z,14.60
2019-02-25T00:54:42.813Z,13.98
2019-02-25T00:57:15.061Z,14.95
2019-02-25T00:59:44.166Z,16.62
2019-02-25T01:02:12.904Z,15.70
2019-02-25T01:04:43.902Z,14.55
2019-02-25T01:07:18.934Z,14.65
2019-02-25T01:09:49.687Z,16.00
2019-02-25T01:12:19.034Z,17.20
2019-02-25T01:14:48.128Z,13.72
2019-02-25T01:17:17.727Z,17.52
2019-02-25T01:19:51.934Z,13.08
2019-02-25T01:22:23.005Z,18.65
2019-02-25T01:24:53.071Z,20.52
2019-02-25T01:27:22.315Z,13.60
2019-02-25T01:29:51.761Z,15.32
2019-02-25T01:32:23.842Z,15.35
2019-02-25T01:34:56.179Z,15.80
2019-02-25T01:37:32.648Z,15.45
2019-02-25T01:40:03.230Z,15.08
2019-02-25T01:42:37.302Z,16.07
2019-02-25T01:45:08.788Z,15.72
2019-02-25T01:47:40.925Z,16.50
2019-02-25T01:50:14.877Z,14.78
2019-02-25T01:52:47.183Z,15.05
2019-02-25T01:55:16.092Z,17.25
2019-02-25T01:57:46.252Z,18.77
2019-02-25T02:00:17.826Z,15.95
2019-02-25T02:02:46.754Z,15.58
2019-02-25T02:05:15.834Z,17.27
2019-02-25T02:07:47.165Z,21.42
2019-02-25T02:10:17.419Z,21.48
2019-02-25T02:12:49.688Z,22.20
2019-02-25T02:15:20.386Z,25.65
2019-02-25T02:17:50.646Z,28.10
2019-02-25T02:20:21.632Z,27.35
2019-02-25T02:22:50.749Z,22.42
2019-02-25T02:25:24.598Z,24.27
2019-02-25T02:27:57.853Z,18.12
2019-02-25T02:30:32.925Z,17.70
2019-02-25T02:33:01.642Z,17.82
2019-02-25T02:35:35.530Z,22.48
2019-02-25T02:38:06.448Z,21.25
2019-02-25T02:40:40.452Z,16.00
2019-02-25T02:43:13.580Z,16.48
2019-02-25T02:45:55.427Z,14.70
2019-02-25T02:48:40.470Z,15.75
2019-02-25T02:51:15.412Z,13.93
2019-02-25T02:53:50.455Z,18.00
2019-02-25T02:56:21.195Z,18.45
2019-02-25T02:58:56.451Z,13.80
2019-02-25T03:01:29.664Z,23.05
2019-02-25T03:04:02.693Z,15.70
2019-02-25T03:06:37.649Z,15.98
2019-02-25T03:09:10.559Z,17.15
2019-02-25T03:11:41.621Z,16.55
2019-02-25T03:14:14.094Z,15.60
2019-02-25T03:16:47.558Z,16.32
2019-02-25T03:19:21.742Z,14.18
2019-02-25T03:21:53.656Z,16.57
2019-02-25T03:24:25.411Z,18.45
2019-02-25T03:26:57.914Z,13.20
2019-02-25T03:29:35.155Z,13.80
2019-02-25T03:32:08.819Z,16.62
2019-02-25T03:34:39.348Z,12.90
2019-02-25T03:37:29.053Z,13.53
2019-02-25T03:40:01.631Z,14.85
2019-02-25T03:42:32.833Z,12.97
2019-02-25T03:45:06.091Z,14.95
2019-02-25T03:47:35.656Z,14.25
2019-02-25T03:50:10.795Z,15.18
2019-02-25T03:52:42.097Z,16.85
2019-02-25T03:55:18.183Z,14.18
2019-02-25T03:57:50.358Z,16.95
2019-02-25T04:00:22.309Z,18.02
2019-02-25T04:02:56.012Z,16.07
2019-02-25T04:05:30.194Z,15.65
2019-02-25T04:08:02.749Z,16.12
2019-02-25T04:10:35.290Z,15.87
2019-02-25T04:13:08.069Z,14.43
2019-02-25T04:15:42.599Z,13.20
2019-02-25T04:18:14.724Z,14.28
2019-02-25T04:20:49.173Z,14.63
2019-02-25T04:23:20.223Z,20.75
2019-02-25T04:25:54.737Z,17.90
2019-02-25T04:28:27.328Z,17.12
2019-02-25T04:30:57.968Z,20.30
2019-02-25T04:33:27.883Z,20.45
2019-02-25T04:35:57.168Z,20.85
2019-02-25T04:38:33.612Z,16.07
2019-02-25T04:41:02.710Z,15.43
2019-02-25T04:43:34.801Z,18.77
2019-02-25T04:46:11.663Z,17.80
2019-02-25T04:48:43.870Z,16.17
2019-02-25T04:51:13.269Z,15.93
2019-02-25T04:53:47.826Z,18.07
2019-02-25T04:56:19.940Z,15.85
2019-02-25T04:58:54.079Z,22.45
2019-02-25T05:01:27.801Z,17.52
2019-02-25T05:04:06.017Z,18.85
2019-02-25T05:06:40.123Z,17.52
2019-02-25T05:09:12.029Z,18.40
2019-02-25T05:11:42.182Z,16.10
2019-02-25T05:14:16.958Z,17.00
2019-02-25T05:16:47.067Z,16.80
2019-02-25T05:19:17.698Z,14.55
2019-02-25T05:21:47.025Z,16.85
2019-02-25T05:24:18.021Z,15.58
2019-02-25T05:26:49.281Z,17.37
2019-02-25T05:29:18.627Z,17.70
2019-02-25T05:31:49.546Z,15.43
2019-02-25T05:34:19.084Z,20.17
2019-02-25T05:36:52.540Z,17.05
2019-02-25T05:41:51.980Z,16.70
2019-02-25T05:44:25.489Z,14.23
2019-02-25T05:46:59.181Z,18.75
2019-02-25T05:49:29.665Z,20.08
2019-02-25T05:51:59.968Z,19.45
2019-02-25T05:54:31.798Z,20.10
2019-02-25T05:57:02.796Z,19.30
2019-02-25T05:59:34.581Z,16.07
2019-02-25T06:02:05.434Z,14.47
2019-02-25T06:04:37.030Z,20.75
2019-02-25T06:07:10.861Z,16.50
2019-02-25T06:09:42.879Z,17.40
2019-02-25T06:12:13.630Z,17.92
2019-02-25T06:14:46.346Z,20.75
2019-02-25T06:17:17.147Z,20.95
2019-02-25T06:19:51.713Z,23.77
2019-02-25T06:22:23.554Z,16.48
2019-02-25T06:24:57.164Z,21.07
2019-02-25T06:27:31.075Z,18.87
2019-02-25T06:30:01.160Z,22.62
2019-02-25T06:32:33.342Z,22.37
2019-02-25T06:35:05.563Z,19.70
2019-02-25T06:37:37.569Z,20.95
2019-02-25T06:40:08.856Z,25.32
2019-02-25T06:42:39.449Z,17.20
2019-02-25T06:45:14.876Z,16.00
2019-02-25T06:47:46.039Z,22.42
2019-02-25T06:50:18.016Z,17.55
2019-02-25T06:52:51.544Z,17.02
2019-02-25T06:55:22.220Z,17.77
2019-02-25T06:57:54.112Z,14.93
2019-02-25T07:00:25.512Z,17.30
2019-02-25T07:03:00.237Z,16.15
2019-02-25T07:05:41.846Z,16.37
2019-02-25T07:08:32.971Z,15.95
2019-02-25T07:11:25.791Z,16.27
2019-02-25T07:14:13.870Z,16.93
2019-02-25T07:17:00.529Z,16.52
2019-02-25T07:19:38.399Z,18.42
2019-02-25T07:22:16.436Z,32.65
2019-02-25T07:25:07.322Z,20.45
2019-02-25T07:28:11.417Z,19.65
2019-02-25T07:31:03.899Z,16.27
2019-02-25T07:33:53.366Z,18.70
2019-02-25T07:36:39.811Z,21.27
2019-02-25T07:39:35.551Z,18.80
2019-02-25T07:42:11.774Z,16.97
2019-02-25T07:45:06.549Z,20.57
2019-02-25T07:47:48.746Z,16.17
2019-02-25T07:50:28.185Z,17.32
2019-02-25T07:53:17.682Z,22.25
2019-02-25T07:56:05.963Z,19.92
2019-02-25T07:59:07.381Z,16.97
2019-02-25T08:02:04.052Z,14.95
2019-02-25T08:04:44.990Z,22.22
2019-02-25T08:07:45.107Z,17.92
2019-02-25T08:10:37.385Z,29.45
2019-02-25T08:13:26.944Z,22.02
2019-02-25T08:16:34.601Z,27.02
2019-02-25T08:19:15.667Z,23.00
2019-02-25T08:22:04.028Z,20.08
2019-02-25T08:25:03.628Z,19.25
2019-02-25T08:28:01.622Z,16.40
2019-02-25T08:30:51.875Z,16.45
2019-02-25T08:33:42.780Z,14.45
2019-02-25T08:37:06.604Z,17.82
2019-02-25T08:39:59.330Z,13.55
2019-02-25T08:42:35.085Z,13.20
2019-02-25T08:45:19.062Z,17.50
2019-02-25T08:47:59.199Z,17.02
2019-02-25T08:50:33.304Z,15.00
2019-02-25T08:53:03.315Z,14.30
2019-02-25T08:55:32.302Z,14.83
2019-02-25T08:58:00.869Z,13.65
2019-02-25T09:00:29.439Z,15.98
2019-02-25T09:02:58.341Z,15.50
2019-02-25T09:05:27.505Z,15.23
2019-02-25T09:07:57.684Z,13.30
2019-02-25T09:10:26.665Z,22.37
2019-02-25T09:12:57.392Z,13.50
2019-02-25T09:15:32.589Z,17.07
2019-02-25T09:18:02.373Z,17.42
2019-02-25T09:20:31.480Z,16.40
2019-02-25T09:23:06.022Z,20.30
2019-02-25T09:25:37.245Z,19.67
2019-02-25T09:28:07.376Z,17.70
2019-02-25T09:30:36.585Z,20.82
2019-02-25T09:33:11.131Z,17.45
2019-02-25T09:35:40.279Z,20.92
2019-02-25T09:38:14.568Z,17.12
2019-02-25T09:40:48.498Z,27.50
2019-02-25T09:43:18.623Z,22.82
2019-02-25T09:45:47.871Z,23.25
2019-02-25T09:48:18.350Z,26.37
2019-02-25T09:50:47.241Z,27.25
2019-02-25T09:53:17.807Z,16.60
2019-02-25T09:55:49.771Z,17.10
2019-02-25T09:58:18.629Z,15.05
2019-02-25T10:00:52.229Z,13.93
2019-02-25T10:03:21.131Z,14.43
2019-02-25T10:05:52.483Z,14.28
2019-02-25T10:08:22.902Z,14.18
2019-02-25T10:10:53.666Z,15.20
2019-02-25T10:13:25.763Z,15.28
2019-02-25T10:15:57.391Z,18.32
2019-02-25T10:18:26.539Z,14.45
2019-02-25T10:20:58.286Z,17.23
2019-02-25T10:23:30.669Z,19.52
2019-02-25T10:26:05.679Z,16.32
2019-02-25T10:28:34.775Z,18.92
2019-02-25T10:31:08.426Z,15.00
2019-02-25T10:36:08.663Z,15.08
2019-02-25T10:38:37.715Z,14.30
2019-02-25T10:41:06.662Z,16.37
2019-02-25T10:43:41.038Z,13.43
2019-02-25T10:46:13.419Z,16.45
2019-02-25T10:48:44.037Z,12.63
2019-02-25T10:51:17.764Z,13.22
2019-02-25T10:56:23.842Z,14.05
2019-02-25T10:58:59.642Z,16.12
2019-02-25T11:01:29.795Z,15.75
2019-02-25T11:03:58.328Z,20.02
2019-02-25T11:06:29.087Z,15.75
2019-02-25T11:09:06.888Z,12.10
2019-02-25T11:11:37.313Z,15.28
2019-02-25T11:14:09.210Z,14.33
2019-02-25T11:16:41.925Z,16.10
2019-02-25T11:21:44.377Z,15.72
2019-02-25T11:24:16.691Z,16.30
2019-02-25T11:26:49.038Z,14.55
2019-02-25T11:29:21.566Z,17.32
2019-02-25T11:31:53.133Z,17.15
2019-02-25T11:34:22.362Z,14.80
2019-02-25T11:36:55.505Z,16.20
2019-02-25T11:39:27.572Z,19.07
2019-02-25T11:41:57.566Z,17.32
2019-02-25T11:44:31.152Z,12.70
2019-02-25T11:47:04.677Z,13.03
2019-02-25T11:49:37.247Z,20.05
2019-02-25T11:52:07.877Z,13.83
2019-02-25T11:54:40.139Z,13.68
2019-02-25T11:57:10.801Z,16.02
2019-02-25T11:59:42.846Z,14.78
2019-02-25T12:02:11.587Z,13.20
2019-02-25T12:04:40.730Z,17.62
2019-02-25T12:07:13.236Z,17.80
2019-02-25T12:09:42.264Z,16.57
2019-02-25T12:12:12.757Z,14.55
2019-02-25T12:14:47.765Z,17.57
2019-02-25T12:17:18.733Z,11.15
2019-02-25T12:19:52.233Z,13.90
2019-02-25T12:22:24.596Z,13.88
2019-02-25T12:24:54.902Z,12.23
2019-02-25T12:27:24.611Z,10.13
2019-02-25T12:29:57.425Z,10.30
2019-02-25T12:32:26.337Z,7.17
2019-02-25T12:34:54.869Z,9.68
2019-02-25T12:37:25.598Z,8.08
2019-02-25T12:39:56.322Z,10.23
2019-02-25T12:42:27.400Z,8.55
2019-02-25T12:44:58.027Z,5.78
2019-02-25T12:47:27.609Z,3.62
2019-02-25T12:50:00.813Z,4.30
2019-02-25T12:52:31.051Z,8.05
2019-02-25T12:55:01.552Z,3.20
2019-02-25T12:57:30.270Z,3.92
2019-02-25T13:00:04.229Z,3.45
2019-02-25T13:02:34.793Z,3.62
2019-02-25T13:05:03.532Z,4.15
2019-02-25T13:07:36.955Z,2.98
2019-02-25T13:10:08.537Z,2.47
2019-02-25T13:12:39.046Z,1.62
2019-02-25T13:15:13.278Z,2.15
2019-02-25T13:17:43.808Z,1.90
2019-02-25T13:20:12.357Z,3.05
2019-02-25T13:22:43.283Z,2.08
2019-02-25T13:25:14.607Z,3.02
2019-02-25T13:27:45.399Z,5.10
2019-02-25T13:30:15.113Z,4.10
2019-02-25T13:32:45.462Z,2.30
2019-02-25T13:35:14.969Z,3.62
2019-02-25T13:37:48.498Z,2.52
2019-02-25T13:40:23.686Z,2.40
2019-02-25T13:42:54.133Z,3.55
2019-02-25T13:45:24.862Z,3.22
2019-02-25T13:47:57.028Z,5.33
2019-02-25T13:50:29.133Z,4.40
2019-02-25T13:53:03.841Z,3.67
2019-02-25T13:55:36.804Z,3.85
2019-02-25T13:58:14.601Z,4.40
2019-02-25T14:00:51.469Z,4.33
2019-02-25T14:03:21.656Z,5.00
2019-02-25T14:05:53.910Z,3.52
2019-02-25T14:08:24.009Z,4.65
2019-02-25T14:10:54.435Z,3.45
2019-02-25T14:13:23.155Z,6.72
2019-02-25T14:15:55.012Z,5.97
2019-02-25T14:18:26.633Z,5.80
2019-02-25T14:20:55.544Z,5.67
2019-02-25T14:23:30.782Z,5.47
2019-02-25T14:26:03.711Z,5.85
2019-02-25T14:28:34.719Z,4.93
2019-02-25T14:31:10.139Z,7.75
2019-02-25T14:33:40.036Z,8.33
2019-02-25T14:36:10.660Z,10.28
2019-02-25T14:38:41.583Z,6.33
2019-02-25T14:41:16.054Z,6.62
2019-02-25T14:43:49.188Z,11.40
2019-02-25T14:46:21.836Z,10.10
2019-02-25T14:48:48.879Z,9.40
2019-02-25T14:51:17.631Z,6.87
2019-02-25T14:53:52.735Z,6.42
2019-02-25T14:56:28.175Z,9.03
2019-02-25T14:59:00.607Z,10.60
2019-02-25T15:01:29.828Z,9.18
2019-02-25T15:04:04.315Z,8.88
2019-02-25T15:06:36.777Z,8.90
2019-02-25T15:09:09.822Z,11.43
2019-02-25T15:11:38.996Z,13.38
2019-02-25T15:14:12.853Z,11.80
2019-02-25T15:16:42.119Z,11.38
2019-02-25T15:19:13.339Z,9.30
2019-02-25T15:21:43.331Z,9.00
2019-02-25T15:24:16.563Z,9.75
2019-02-25T15:26:48.879Z,10.45
2019-02-25T15:29:22.335Z,14.35
2019-02-25T15:31:57.078Z,10.45
2019-02-25T15:34:28.524Z,9.48
2019-02-25T15:36:58.604Z,8.08
2019-02-25T15:39:28.137Z,10.55
2019-02-25T15:42:02.085Z,10.65
2019-02-25T15:44:30.658Z,9.45
2019-02-25T15:47:02.517Z,11.08
2019-02-25T15:49:34.683Z,9.13
2019-02-25T15:52:05.252Z,8.35
2019-02-25T15:54:39.376Z,8.38
2019-02-25T15:57:09.022Z,9.35
2019-02-25T15:59:45.058Z,6.62
2019-02-25T16:02:18.926Z,8.78
2019-02-25T16:04:56.418Z,10.03
2019-02-25T16:07:25.961Z,14.47
2019-02-25T16:10:03.319Z,17.10
2019-02-25T16:12:31.440Z,15.45
2019-02-25T16:15:01.411Z,14.90
2019-02-25T16:17:35.158Z,10.15
2019-02-25T16:20:07.541Z,14.30
2019-02-25T16:22:40.807Z,12.05
2019-02-25T16:25:14.402Z,11.65
2019-02-25T16:27:49.398Z,13.53
2019-02-25T16:30:19.101Z,8.93
2019-02-25T16:32:48.791Z,11.30
2019-02-25T16:35:20.942Z,15.08
2019-02-25T16:37:50.826Z,13.30
2019-02-25T16:40:26.417Z,11.78
2019-02-25T16:45:34.843Z,15.30
2019-02-25T16:48:04.838Z,11.70
2019-02-25T16:50:35.293Z,9.08
2019-02-25T16:53:10.271Z,9.43
2019-02-25T16:58:13.225Z,12.70
2019-02-25T17:00:41.729Z,11.55
2019-02-25T17:03:13.770Z,13.40
2019-02-25T17:05:45.634Z,12.63
2019-02-25T17:08:19.046Z,15.45
2019-02-25T17:10:53.933Z,13.13
2019-02-25T17:13:23.491Z,12.28
2019-02-25T17:15:53.081Z,12.47
2019-02-25T17:18:23.831Z,12.00
2019-02-25T17:20:55.880Z,11.88
2019-02-25T17:23:30.207Z,10.32
2019-02-25T17:26:02.016Z,11.45
2019-02-25T17:28:33.506Z,9.93
2019-02-25T17:31:06.519Z,18.45
2019-02-25T17:33:42.796Z,17.27
2019-02-25T17:36:16.597Z,16.85
2019-02-25T17:38:50.147Z,18.50
2019-02-25T17:43:50.036Z,13.65
2019-02-25T17:46:19.098Z,12.82
2019-02-25T17:48:48.138Z,13.15
2019-02-25T17:51:20.866Z,10.45
2019-02-25T17:56:26.994Z,10.72
2019-02-25T17:58:55.772Z,19.23
2019-02-25T18:01:28.013Z,16.27
2019-02-25T18:03:56.735Z,16.25
2019-02-25T18:06:31.952Z,12.28
2019-02-25T18:09:04.577Z,16.70
2019-02-25T18:11:33.449Z,11.53
2019-02-25T18:14:05.274Z,14.10
2019-02-25T18:16:37.127Z,11.28
2019-02-25T18:19:09.200Z,12.53
2019-02-25T18:21:43.850Z,14.25
2019-02-25T18:24:13.858Z,13.70
2019-02-25T18:26:52.832Z,13.10
2019-02-25T18:29:25.177Z,13.13
2019-02-25T18:31:59.236Z,16.93
2019-02-25T18:34:32.197Z,18.85
2019-02-25T18:39:35.697Z,14.70
2019-02-25T18:42:11.617Z,26.75
2019-02-25T18:44:39.975Z,22.77
2019-02-25T18:47:16.527Z,17.32
2019-02-25T18:49:47.786Z,17.67
2019-02-25T18:52:19.591Z,23.98
2019-02-25T18:54:51.561Z,22.70
2019-02-25T18:57:21.036Z,30.32
2019-02-25T18:59:54.802Z,14.65
2019-02-25T19:02:26.448Z,15.25
2019-02-25T19:05:02.139Z,14.87
2019-02-25T19:07:37.714Z,18.65
2019-02-25T19:10:12.553Z,17.85
2019-02-25T19:12:43.901Z,42.25
2019-02-25T19:15:15.474Z,41.95
2019-02-25T19:17:45.843Z,28.42
2019-02-25T19:20:17.643Z,49.25
2019-02-25T19:22:46.518Z,60.08
2019-02-25T19:25:20.892Z,61.77
2019-02-25T19:27:52.697Z,36.45
2019-02-25T19:30:22.298Z,38.83
2019-02-25T19:32:53.447Z,43.78
2019-02-25T19:35:25.779Z,40.92
2019-02-25T19:37:56.090Z,29.65
2019-02-25T19:40:25.043Z,26.52
2019-02-25T19:43:00.523Z,24.45
2019-02-25T19:45:29.890Z,24.02
2019-02-25T19:48:02.469Z,26.87
2019-02-25T19:53:04.570Z,18.90
2019-02-25T19:55:33.968Z,22.67
2019-02-25T19:58:04.223Z,15.55
2019-02-25T20:00:35.351Z,18.25
2019-02-25T20:03:07.593Z,17.67
2019-02-25T20:05:41.658Z,16.70
2019-02-25T20:08:11.436Z,17.80
2019-02-25T20:10:42.398Z,24.02
2019-02-25T20:13:14.380Z,17.70
2019-02-25T20:15:44.403Z,17.80
2019-02-25T20:18:13.928Z,16.82
2019-02-25T20:20:45.773Z,16.97
2019-02-25T20:23:16.371Z,18.77
2019-02-25T20:25:47.068Z,19.55
2019-02-25T20:28:18.665Z,20.45
2019-02-25T20:30:48.964Z,19.95
2019-02-25T20:33:18.393Z,19.23
2019-02-25T20:35:51.167Z,19.82
2019-02-25T20:38:22.523Z,19.00
2019-02-25T20:40:51.579Z,18.73
2019-02-25T20:43:23.504Z,20.82
2019-02-25T20:45:54.643Z,16.75
2019-02-25T20:48:29.278Z,23.02
2019-02-25T20:50:59.825Z,18.45
2019-02-25T20:53:41.142Z,17.05
2019-02-25T20:56:09.868Z,20.35
2019-02-25T20:58:40.202Z,23.62
2019-02-25T21:01:16.101Z,23.02
2019-02-25T21:03:48.587Z,23.25
2019-02-25T21:06:22.830Z,20.85
2019-02-25T21:08:57.537Z,26.25
2019-02-25T21:11:26.612Z,23.30
2019-02-25T21:13:56.835Z,28.23
2019-02-25T21:16:30.575Z,31.52
2019-02-25T21:19:03.154Z,32.15
2019-02-25T21:21:34.647Z,31.33
2019-02-25T21:24:08.803Z,30.12
2019-02-25T21:29:10.319Z,25.20
2019-02-25T21:31:47.259Z,26.40
2019-02-25T21:34:20.535Z,26.73
2019-02-25T21:36:47.584Z,30.05
2019-02-25T21:39:19.122Z,27.52
2019-02-25T21:41:47.780Z,29.18
2019-02-25T21:44:23.566Z,28.20
2019-02-25T21:46:56.254Z,30.75
2019-02-25T21:49:27.160Z,28.40
2019-02-25T21:51:57.005Z,25.72
2019-02-25T21:54:27.846Z,20.37
2019-02-25T21:56:59.074Z,22.13
2019-02-25T21:59:32.237Z,22.60
2019-02-25T22:02:03.737Z,21.75
2019-02-25T22:04:38.488Z,20.32
2019-02-25T22:09:41.880Z,20.48
2019-02-25T22:12:11.301Z,25.88
2019-02-25T22:14:41.196Z,24.75
2019-02-25T22:17:15.130Z,26.25
2019-02-25T22:19:45.816Z,26.73
2019-02-25T22:22:24.128Z,23.85
2019-02-25T22:24:50.486Z,23.30
2019-02-25T22:27:21.206Z,32.88
2019-02-25T22:29:53.042Z,30.68
2019-02-25T22:32:21.744Z,24.23
2019-02-25T22:34:56.065Z,41.02
2019-02-25T22:37:29.174Z,27.13
2019-02-25T22:39:59.501Z,26.97
2019-02-25T22:42:33.413Z,23.60
2019-02-25T22:45:02.196Z,26.27
2019-02-25T22:47:30.742Z,20.57
2019-02-25T22:50:04.305Z,20.68
2019-02-25T22:52:37.290Z,22.13
2019-02-25T22:55:08.184Z,21.97
2019-02-25T22:57:41.058Z,23.62
2019-02-25T23:00:22.926Z,24.05
2019-02-25T23:02:56.825Z,28.65
2019-02-25T23:05:26.556Z,26.73
2019-02-25T23:07:55.518Z,22.50
2019-02-25T23:10:27.899Z,20.27
2019-02-25T23:12:58.118Z,22.55
2019-02-25T23:15:30.613Z,22.22
2019-02-25T23:18:05.275Z,25.25
2019-02-25T23:20:31.704Z,30.55
2019-02-25T23:23:04.855Z,23.70
2019-02-25T23:25:32.419Z,20.80
2019-02-25T23:28:02.305Z,24.67
2019-02-25T23:30:30.946Z,26.62
2019-02-25T23:33:02.070Z,28.30
2019-02-25T23:35:30.641Z,24.85
2019-02-25T23:38:03.817Z,18.87
2019-02-25T23:40:36.010Z,20.75
2019-02-25T23:43:07.478Z,24.67
2019-02-25T23:45:37.917Z,23.32
2019-02-25T23:48:08.955Z,22.32
2019-02-25T23:50:36.972Z,24.60
2019-02-25T23:53:12.289Z,22.20
2019-02-25T23:55:45.156Z,19.20
2019-02-25T23:58:19.613Z,21.70
